createdAt,value
2023-05-02T00:00:11.366Z,25.35
2023-05-02T00:01:11.339Z,25.35
2023-05-02T00:02:11.433Z,25.35
2023-05-02T00:03:11.448Z,25.35
2023-05-02T00:04:11.479Z,25.34
2023-05-02T00:05:11.314Z,25.35
2023-05-02T00:06:11.362Z,25.34
2023-05-02T00:07:11.303Z,25.34
2023-05-02T00:08:11.280Z,25.34
2023-05-02T00:09:11.295Z,25.34
2023-05-02T00:10:11.286Z,25.34
2023-05-02T00:11:11.295Z,25.33
2023-05-02T00:12:11.296Z,25.34
2023-05-02T00:13:11.250Z,25.34
2023-05-02T00:14:11.291Z,25.33
2023-05-02T00:15:11.220Z,25.33
2023-05-02T00:16:11.330Z,25.32
2023-05-02T00:17:11.379Z,25.32
2023-05-02T00:18:11.273Z,25.33
2023-05-02T00:19:11.226Z,25.33
2023-05-02T00:20:11.210Z,25.33
2023-05-02T00:21:11.238Z,25.32
2023-05-02T00:22:11.176Z,25.33
2023-05-02T00:23:11.170Z,25.32
2023-05-02T00:24:11.202Z,25.32
2023-05-02T00:25:11.165Z,25.32
2023-05-02T00:26:11.168Z,25.32
2023-05-02T00:27:11.178Z,25.32
2023-05-02T00:28:11.159Z,25.32
2023-05-02T00:29:11.196Z,25.32
2023-05-02T00:30:11.171Z,25.32
2023-05-02T00:31:11.202Z,25.32
2023-05-02T00:32:11.281Z,25.31
2023-05-02T00:33:11.298Z,25.31
2023-05-02T00:34:11.173Z,25.31
2023-05-02T00:35:11.176Z,25.31
2023-05-02T00:36:11.165Z,25.30
2023-05-02T00:37:11.161Z,25.30
2023-05-02T00:38:11.148Z,25.30
2023-05-02T00:39:11.155Z,25.30
2023-05-02T00:40:11.151Z,25.30
2023-05-02T00:41:11.164Z,25.31
2023-05-02T00:42:11.225Z,25.30
2023-05-02T00:43:11.145Z,25.30
2023-05-02T00:44:11.169Z,25.30
2023-05-02T00:45:11.174Z,25.30
2023-05-02T00:46:11.213Z,25.30
2023-05-02T00:47:11.196Z,25.29
2023-05-02T00:48:11.296Z,25.30
2023-05-02T00:49:11.164Z,25.29
2023-05-02T00:50:11.162Z,25.29
2023-05-02T00:51:11.166Z,25.29
2023-05-02T00:52:11.195Z,25.28
2023-05-02T00:53:11.207Z,25.28
2023-05-02T00:54:11.157Z,25.29
2023-05-02T00:55:11.161Z,25.29
2023-05-02T00:56:11.178Z,25.29
2023-05-02T00:57:11.151Z,25.28
2023-05-02T00:58:11.150Z,25.28
2023-05-02T00:59:11.162Z,25.28
2023-05-02T01:00:11.171Z,25.28
2023-05-02T01:01:11.204Z,25.28
2023-05-02T01:02:11.266Z,25.28
2023-05-02T01:03:11.229Z,25.28
2023-05-02T01:04:11.256Z,25.28
2023-05-02T01:05:11.176Z,25.28
2023-05-02T01:06:11.173Z,25.28
2023-05-02T01:07:11.166Z,25.27
2023-05-02T01:08:11.167Z,25.27
2023-05-02T01:09:11.162Z,25.28
2023-05-02T01:10:11.134Z,25.27
2023-05-02T01:11:11.142Z,25.27
2023-05-02T01:12:11.100Z,25.28
2023-05-02T01:13:11.154Z,25.26
2023-05-02T01:14:11.122Z,25.27
2023-05-02T01:15:11.133Z,25.26
2023-05-02T01:16:11.213Z,25.26
2023-05-02T01:17:11.169Z,25.26
2023-05-02T01:18:11.216Z,25.27
2023-05-02T01:19:11.117Z,25.27
2023-05-02T01:20:11.202Z,25.27
2023-05-02T01:21:11.127Z,25.26
2023-05-02T01:22:11.160Z,25.26
2023-05-02T01:23:11.134Z,25.26
2023-05-02T01:24:11.118Z,25.26
2023-05-02T01:25:11.111Z,25.26
2023-05-02T01:26:11.128Z,25.26
2023-05-02T01:27:11.139Z,25.25
2023-05-02T01:28:11.152Z,25.26
2023-05-02T01:29:11.159Z,25.24
2023-05-02T01:30:11.165Z,25.26
2023-05-02T01:31:11.206Z,25.25
2023-05-02T01:32:11.144Z,25.26
2023-05-02T01:33:11.146Z,25.25
2023-05-02T01:34:11.138Z,25.25
2023-05-02T01:35:11.169Z,25.24
2023-05-02T01:36:11.150Z,25.24
2023-05-02T01:37:11.169Z,25.24
2023-05-02T01:38:11.228Z,25.25
2023-05-02T01:39:11.120Z,25.24
2023-05-02T01:40:11.123Z,25.24
2023-05-02T01:41:11.169Z,25.24
2023-05-02T01:42:11.171Z,25.23
2023-05-02T01:43:11.182Z,25.23
2023-05-02T01:44:11.163Z,25.23
2023-05-02T01:45:11.207Z,25.24
2023-05-02T01:46:11.253Z,25.23
2023-05-02T01:47:11.297Z,25.23
2023-05-02T01:48:11.285Z,25.22
2023-05-02T01:49:11.206Z,25.23
2023-05-02T01:50:11.214Z,25.22
2023-05-02T01:51:11.232Z,25.22
2023-05-02T01:52:11.234Z,25.22
2023-05-02T01:53:11.221Z,25.22
2023-05-02T01:54:11.252Z,25.22
2023-05-02T01:55:11.207Z,25.22
2023-05-02T01:56:11.244Z,25.22
2023-05-02T01:57:11.282Z,25.22
2023-05-02T01:58:11.248Z,25.21
2023-05-02T01:59:11.257Z,25.22
2023-05-02T02:00:11.280Z,25.22
2023-05-02T02:01:11.302Z,25.21
2023-05-02T02:02:11.281Z,25.21
2023-05-02T02:03:11.314Z,25.22
2023-05-02T02:04:11.455Z,25.21
2023-05-02T02:05:11.310Z,25.21
2023-05-02T02:06:11.359Z,25.21
2023-05-02T02:07:11.348Z,25.21
2023-05-02T02:08:11.337Z,25.21
2023-05-02T02:09:11.367Z,25.21
2023-05-02T02:10:11.337Z,25.21
2023-05-02T02:11:11.401Z,25.21
2023-05-02T02:12:11.369Z,25.20
2023-05-02T02:13:11.412Z,25.20
2023-05-02T02:14:11.419Z,25.21
2023-05-02T02:15:11.410Z,25.21
2023-05-02T02:16:11.472Z,25.21
2023-05-02T02:17:11.441Z,25.20
2023-05-02T02:18:11.493Z,25.20
2023-05-02T02:19:11.459Z,25.21
2023-05-02T02:20:11.472Z,25.20
2023-05-02T02:21:11.472Z,25.19
2023-05-02T02:22:11.496Z,25.20
2023-05-02T02:23:11.534Z,25.19
2023-05-02T02:24:11.557Z,25.20
2023-05-02T02:25:11.547Z,25.20
2023-05-02T02:26:11.542Z,25.20
2023-05-02T02:27:11.558Z,25.19
2023-05-02T02:28:11.579Z,25.20
2023-05-02T02:29:11.604Z,25.19
2023-05-02T02:30:11.575Z,25.19
2023-05-02T02:31:11.647Z,25.19
2023-05-02T02:32:11.605Z,25.19
2023-05-02T02:33:11.655Z,25.19
2023-05-02T02:34:11.616Z,25.19
2023-05-02T02:35:11.634Z,25.19
2023-05-02T02:36:11.650Z,25.19
2023-05-02T02:37:11.653Z,25.19
2023-05-02T02:38:11.627Z,25.19
2023-05-02T02:39:11.655Z,25.19
2023-05-02T02:40:11.700Z,25.19
2023-05-02T02:41:11.677Z,25.18
2023-05-02T02:42:11.681Z,25.18
2023-05-02T02:43:11.717Z,25.19
2023-05-02T02:44:13.475Z,25.18
2023-05-02T02:45:11.742Z,25.18
2023-05-02T02:46:11.784Z,25.18
2023-05-02T02:47:11.726Z,25.18
2023-05-02T02:48:11.810Z,25.18
2023-05-02T02:49:11.767Z,25.17
2023-05-02T02:50:11.795Z,25.18
2023-05-02T02:51:11.797Z,25.18
2023-05-02T02:52:11.816Z,25.18
2023-05-02T02:53:11.816Z,25.18
2023-05-02T02:54:25.345Z,25.17
2023-05-02T02:55:12.826Z,25.17
2023-05-02T02:56:11.812Z,25.17
2023-05-02T02:57:11.814Z,25.17
2023-05-02T02:58:11.776Z,25.17
2023-05-02T02:59:11.791Z,25.17
2023-05-02T03:00:11.868Z,25.17
2023-05-02T03:01:11.777Z,25.17
2023-05-02T03:02:11.809Z,25.17
2023-05-02T03:03:11.850Z,25.17
2023-05-02T03:04:11.841Z,25.17
2023-05-02T03:05:11.735Z,25.17
2023-05-02T03:06:11.736Z,25.17
2023-05-02T03:07:11.755Z,25.16
2023-05-02T03:08:11.711Z,25.17
2023-05-02T03:09:11.720Z,25.17
2023-05-02T03:10:11.699Z,25.15
2023-05-02T03:11:11.698Z,25.16
2023-05-02T03:12:11.673Z,25.15
2023-05-02T03:13:11.685Z,25.15
2023-05-02T03:14:11.698Z,25.16
2023-05-02T03:15:11.701Z,25.15
2023-05-02T03:16:11.701Z,25.15
2023-05-02T03:17:11.654Z,25.15
2023-05-02T03:18:11.763Z,25.16
2023-05-02T03:19:11.661Z,25.16
2023-05-02T03:20:11.629Z,25.16
2023-05-02T03:21:11.631Z,25.15
2023-05-02T03:22:11.628Z,25.15
2023-05-02T03:23:11.668Z,25.15
2023-05-02T03:24:11.707Z,25.15
2023-05-02T03:25:11.663Z,25.15
2023-05-02T03:26:11.722Z,25.15
2023-05-02T03:27:11.688Z,25.15
2023-05-02T03:28:11.710Z,25.15
2023-05-02T03:29:11.745Z,25.15
2023-05-02T03:30:11.789Z,25.15
2023-05-02T03:31:11.779Z,25.15
2023-05-02T03:32:11.850Z,25.15
2023-05-02T03:33:11.872Z,25.14
2023-05-02T03:34:11.778Z,25.14
2023-05-02T03:35:11.940Z,25.14
2023-05-02T03:36:11.847Z,25.14
2023-05-02T03:37:11.851Z,25.14
2023-05-02T03:38:11.870Z,25.13
2023-05-02T03:39:11.862Z,25.14
2023-05-02T03:40:11.867Z,25.14
2023-05-02T03:41:11.933Z,25.14
2023-05-02T03:42:11.928Z,25.13
2023-05-02T03:43:11.939Z,25.13
2023-05-02T03:44:11.962Z,25.14
2023-05-02T03:45:11.949Z,25.14
2023-05-02T03:46:12.049Z,25.14
2023-05-02T03:47:12.003Z,25.14
2023-05-02T03:48:12.199Z,25.14
2023-05-02T03:49:12.040Z,25.14
2023-05-02T03:50:12.061Z,25.14
2023-05-02T03:51:12.028Z,25.14
2023-05-02T03:52:12.050Z,25.14
2023-05-02T03:53:12.095Z,25.13
2023-05-02T03:54:12.099Z,25.13
2023-05-02T03:55:12.096Z,25.14
2023-05-02T03:56:12.183Z,25.13
2023-05-02T03:57:12.111Z,25.14
2023-05-02T03:58:12.163Z,25.13
2023-05-02T03:59:12.185Z,25.13
2023-05-02T04:00:12.237Z,25.13
2023-05-02T04:01:12.216Z,25.13
2023-05-02T04:02:12.239Z,25.13
2023-05-02T04:03:12.319Z,25.14
2023-05-02T04:04:12.271Z,25.14
2023-05-02T04:05:12.258Z,25.14
2023-05-02T04:06:12.260Z,25.14
2023-05-02T04:07:12.273Z,25.12
2023-05-02T04:08:12.296Z,25.12
2023-05-02T04:09:12.326Z,25.10
2023-05-02T04:10:12.360Z,25.09
2023-05-02T04:11:12.343Z,25.10
2023-05-02T04:12:12.381Z,25.07
2023-05-02T04:13:12.445Z,25.04
2023-05-02T04:14:12.482Z,25.03
2023-05-02T04:15:12.524Z,25.02
2023-05-02T04:16:12.638Z,25.00
2023-05-02T04:17:12.714Z,24.98
2023-05-02T04:18:12.663Z,24.97
2023-05-02T04:19:12.683Z,24.96
2023-05-02T04:20:12.758Z,24.95
2023-05-02T04:21:12.795Z,24.94
2023-05-02T04:22:12.829Z,24.94
2023-05-02T04:23:12.890Z,24.94
2023-05-02T04:24:12.947Z,24.92
2023-05-02T04:25:13.004Z,24.91
2023-05-02T04:26:13.060Z,24.90
2023-05-02T04:27:15.154Z,24.88
2023-05-02T04:28:13.154Z,24.88
2023-05-02T04:29:13.198Z,24.88
2023-05-02T04:30:13.250Z,24.89
2023-05-02T04:31:13.418Z,24.88
2023-05-02T04:32:13.355Z,24.89
2023-05-02T04:33:13.509Z,24.89
2023-05-02T04:34:13.451Z,24.88
2023-05-02T04:35:13.516Z,24.87
2023-05-02T04:36:13.594Z,24.88
2023-05-02T04:37:13.628Z,24.87
2023-05-02T04:38:13.650Z,24.89
2023-05-02T04:39:13.707Z,24.88
2023-05-02T04:40:13.743Z,24.89
2023-05-02T04:41:13.828Z,24.90
2023-05-02T04:42:13.839Z,24.91
2023-05-02T04:43:13.882Z,24.92
2023-05-02T04:44:13.904Z,24.92
2023-05-02T04:45:13.951Z,24.93
2023-05-02T04:46:14.046Z,24.93
2023-05-02T04:47:14.029Z,24.95
2023-05-02T04:48:14.155Z,24.95
2023-05-02T04:49:14.104Z,24.95
2023-05-02T04:50:14.141Z,24.96
2023-05-02T04:51:16.806Z,24.96
2023-05-02T04:52:14.148Z,24.97
2023-05-02T04:53:14.152Z,24.97
2023-05-02T04:54:14.152Z,24.98
2023-05-02T04:55:14.187Z,24.98
2023-05-02T04:56:14.150Z,24.98
2023-05-02T04:57:14.091Z,24.99
2023-05-02T04:58:14.144Z,24.99
2023-05-02T04:59:14.176Z,24.99
2023-05-02T05:00:14.104Z,25.00
2023-05-02T05:01:14.121Z,24.99
2023-05-02T05:02:14.188Z,25.00
2023-05-02T05:03:14.193Z,25.01
2023-05-02T05:04:14.285Z,25.01
2023-05-02T05:05:14.110Z,25.02
2023-05-02T05:06:14.092Z,25.02
2023-05-02T05:07:14.137Z,25.02
2023-05-02T05:08:14.043Z,25.02
2023-05-02T05:09:14.054Z,25.03
2023-05-02T05:10:14.025Z,25.03
2023-05-02T05:11:14.072Z,25.03
2023-05-02T05:12:14.057Z,25.03
2023-05-02T05:13:14.132Z,25.03
2023-05-02T05:14:14.061Z,25.05
2023-05-02T05:15:13.980Z,25.04
2023-05-02T05:16:14.040Z,25.05
2023-05-02T05:17:13.993Z,25.05
2023-05-02T05:18:14.065Z,25.05
2023-05-02T05:19:13.983Z,25.06
2023-05-02T05:20:13.995Z,25.06
2023-05-02T05:21:14.000Z,25.07
2023-05-02T05:22:13.948Z,25.07
2023-05-02T05:23:13.951Z,25.07
2023-05-02T05:24:13.952Z,25.07
2023-05-02T05:25:13.921Z,25.08
2023-05-02T05:26:13.920Z,25.08
2023-05-02T05:27:13.931Z,25.08
2023-05-02T05:28:13.945Z,25.08
2023-05-02T05:29:13.921Z,25.09
2023-05-02T05:30:13.896Z,25.09
2023-05-02T05:31:16.603Z,25.09
2023-05-02T05:32:13.981Z,25.08
2023-05-02T05:33:14.015Z,25.10
2023-05-02T05:34:13.922Z,25.08
2023-05-02T05:35:13.899Z,25.07
2023-05-02T05:36:13.892Z,25.01
2023-05-02T05:37:13.861Z,24.95
2023-05-02T05:38:13.850Z,24.85
2023-05-02T05:39:13.860Z,24.75
2023-05-02T05:40:13.819Z,24.65
2023-05-02T05:41:13.827Z,24.54
2023-05-02T05:42:13.883Z,24.47
2023-05-02T05:43:13.794Z,24.42
2023-05-02T05:44:13.816Z,24.39
2023-05-02T05:45:13.801Z,24.35
2023-05-02T05:46:13.802Z,24.32
2023-05-02T05:47:13.823Z,24.31
2023-05-02T05:48:13.807Z,24.31
2023-05-02T05:49:13.769Z,24.30
2023-05-02T05:50:13.802Z,24.30
2023-05-02T05:51:13.797Z,24.28
2023-05-02T05:52:13.752Z,24.27
2023-05-02T05:53:13.741Z,24.24
2023-05-02T05:54:13.736Z,24.25
2023-05-02T05:55:13.764Z,24.26
2023-05-02T05:56:13.721Z,24.28
2023-05-02T05:57:13.729Z,24.30
2023-05-02T05:58:13.710Z,24.30
2023-05-02T05:59:13.748Z,24.30
2023-05-02T06:00:13.697Z,24.30
2023-05-02T06:01:13.687Z,24.31
2023-05-02T06:02:13.715Z,24.29
2023-05-02T06:03:13.796Z,24.30
2023-05-02T06:04:14.036Z,24.28
2023-05-02T06:05:13.732Z,24.27
2023-05-02T06:06:13.735Z,24.26
2023-05-02T06:07:13.685Z,24.27
2023-05-02T06:08:13.654Z,24.29
2023-05-02T06:09:13.671Z,24.28
2023-05-02T06:10:13.899Z,24.27
2023-05-02T06:11:13.622Z,24.22
2023-05-02T06:12:13.625Z,24.22
2023-05-02T06:13:13.633Z,24.26
2023-05-02T06:14:13.679Z,24.30
2023-05-02T06:15:13.567Z,24.32
2023-05-02T06:16:13.638Z,24.36
2023-05-02T06:17:13.608Z,24.39
2023-05-02T06:18:13.616Z,24.44
2023-05-02T06:19:13.579Z,24.48
2023-05-02T06:20:13.580Z,24.52
2023-05-02T06:21:13.594Z,24.53
2023-05-02T06:22:14.322Z,24.56
2023-05-02T06:23:13.549Z,24.59
2023-05-02T06:24:13.536Z,24.62
2023-05-02T06:25:13.511Z,24.64
2023-05-02T06:26:13.517Z,24.66
2023-05-02T06:27:13.565Z,24.68
2023-05-02T06:28:13.489Z,24.70
2023-05-02T06:29:13.546Z,24.72
2023-05-02T06:30:13.479Z,24.75
2023-05-02T06:31:13.565Z,24.77
2023-05-02T06:32:13.477Z,24.80
2023-05-02T06:33:13.521Z,24.83
2023-05-02T06:34:13.479Z,24.85
2023-05-02T06:35:14.365Z,24.87
2023-05-02T06:36:13.534Z,24.89
2023-05-02T06:37:13.969Z,24.91
2023-05-02T06:38:13.621Z,24.93
2023-05-02T06:39:13.727Z,24.94
2023-05-02T06:40:13.872Z,24.95
2023-05-02T06:41:15.279Z,24.94
2023-05-02T06:42:13.912Z,24.91
2023-05-02T06:43:13.892Z,24.88
2023-05-02T06:44:13.839Z,24.87
2023-05-02T06:45:13.793Z,24.87
2023-05-02T06:46:13.902Z,24.86
2023-05-02T06:47:13.965Z,24.83
2023-05-02T06:48:13.815Z,24.82
2023-05-02T06:49:13.780Z,24.82
2023-05-02T06:50:13.743Z,24.79
2023-05-02T06:51:13.732Z,24.74
2023-05-02T06:52:13.741Z,24.75
2023-05-02T06:53:13.730Z,24.75
2023-05-02T06:54:13.748Z,24.77
2023-05-02T06:55:13.709Z,24.79
2023-05-02T06:56:14.059Z,24.80
2023-05-02T06:57:13.700Z,24.82
2023-05-02T06:58:13.699Z,24.84
2023-05-02T06:59:13.707Z,24.88
2023-05-02T07:00:13.704Z,24.90
2023-05-02T07:01:13.696Z,24.92
2023-05-02T07:02:13.653Z,24.95
2023-05-02T07:03:13.761Z,24.97
2023-05-02T07:04:13.794Z,24.99
2023-05-02T07:05:13.658Z,25.01
2023-05-02T07:06:13.733Z,25.02
2023-05-02T07:07:13.712Z,25.04
2023-05-02T07:08:13.640Z,25.05
2023-05-02T07:09:13.686Z,25.07
2023-05-02T07:10:13.877Z,25.08
2023-05-02T07:11:13.693Z,25.08
2023-05-02T07:12:13.637Z,25.09
2023-05-02T07:13:13.629Z,25.11
2023-05-02T07:14:13.587Z,25.11
2023-05-02T07:15:13.648Z,25.10
2023-05-02T07:16:13.890Z,25.08
2023-05-02T07:17:13.871Z,25.08
2023-05-02T07:18:13.912Z,25.06
2023-05-02T07:19:13.614Z,25.05
2023-05-02T07:20:13.610Z,25.03
2023-05-02T07:21:13.642Z,25.04
2023-05-02T07:22:13.542Z,25.06
2023-05-02T07:23:13.909Z,25.07
2023-05-02T07:24:13.923Z,25.07
2023-05-02T07:25:13.537Z,25.07
2023-05-02T07:26:13.519Z,25.07
2023-05-02T07:27:13.529Z,25.04
2023-05-02T07:28:13.948Z,24.99
2023-05-02T07:29:14.379Z,24.98
2023-05-02T07:30:13.931Z,24.98
2023-05-02T07:31:13.572Z,25.00
2023-05-02T07:32:13.946Z,25.03
2023-05-02T07:33:13.666Z,25.06
2023-05-02T07:34:13.716Z,25.08
2023-05-02T07:35:13.725Z,25.10
2023-05-02T07:36:13.736Z,25.10
2023-05-02T07:37:13.912Z,25.11
2023-05-02T07:38:13.779Z,25.12
2023-05-02T07:39:13.826Z,25.13
2023-05-02T07:40:13.872Z,25.13
2023-05-02T07:41:13.855Z,25.14
2023-05-02T07:42:14.406Z,25.13
2023-05-02T07:43:13.913Z,25.14
2023-05-02T07:44:13.947Z,25.17
2023-05-02T07:45:14.002Z,25.20
2023-05-02T07:46:14.014Z,25.24
2023-05-02T07:47:14.388Z,25.27
2023-05-02T07:48:14.122Z,25.29
2023-05-02T07:49:14.391Z,25.33
2023-05-02T07:50:14.045Z,25.36
2023-05-02T07:51:14.043Z,25.38
2023-05-02T07:52:14.031Z,25.40
2023-05-02T07:53:14.072Z,25.40
2023-05-02T07:54:14.060Z,25.43
2023-05-02T07:55:14.037Z,25.45
2023-05-02T07:56:14.038Z,25.45
2023-05-02T07:57:14.055Z,25.45
2023-05-02T07:58:14.072Z,25.46
2023-05-02T07:59:14.054Z,25.47
2023-05-02T08:00:14.080Z,25.50
2023-05-02T08:01:14.068Z,25.51
2023-05-02T08:02:14.321Z,25.52
2023-05-02T08:03:14.112Z,25.53
2023-05-02T08:04:14.676Z,25.54
2023-05-02T08:05:14.132Z,25.55
2023-05-02T08:06:14.166Z,25.57
2023-05-02T08:07:14.641Z,25.59
2023-05-02T08:08:14.177Z,25.61
2023-05-02T08:09:14.274Z,25.62
2023-05-02T08:10:14.333Z,25.64
2023-05-02T08:11:14.398Z,25.67
2023-05-02T08:12:14.489Z,25.68
2023-05-02T08:13:14.514Z,25.70
2023-05-02T08:14:14.575Z,25.72
2023-05-02T08:15:14.650Z,25.73
2023-05-02T08:16:14.774Z,25.75
2023-05-02T08:17:14.811Z,25.74
2023-05-02T08:18:14.964Z,25.74
2023-05-02T08:19:14.936Z,25.77
2023-05-02T08:20:14.950Z,25.79
2023-05-02T08:21:14.965Z,25.80
2023-05-02T08:22:15.442Z,25.81
2023-05-02T08:23:15.465Z,25.82
2023-05-02T08:24:15.201Z,25.84
2023-05-02T08:25:15.191Z,25.83
2023-05-02T08:26:15.266Z,25.84
2023-05-02T08:27:15.318Z,25.85
2023-05-02T08:28:15.338Z,25.89
2023-05-02T08:29:15.941Z,25.87
2023-05-02T08:30:15.723Z,25.83
2023-05-02T08:31:15.566Z,25.78
2023-05-02T08:32:15.727Z,25.72
2023-05-02T08:33:15.761Z,25.69
2023-05-02T08:34:15.663Z,25.63
2023-05-02T08:35:15.679Z,25.58
2023-05-02T08:36:15.717Z,25.52
2023-05-02T08:37:15.691Z,25.47
2023-05-02T08:38:15.692Z,25.43
2023-05-02T08:39:15.720Z,25.41
2023-05-02T08:40:16.033Z,25.38
2023-05-02T08:41:20.135Z,25.37
2023-05-02T08:42:15.689Z,25.38
2023-05-02T08:43:15.981Z,25.39
2023-05-02T08:44:15.692Z,25.41
2023-05-02T08:45:16.662Z,25.43
2023-05-02T08:46:16.569Z,25.46
2023-05-02T08:47:15.733Z,25.49
2023-05-02T08:48:15.727Z,25.53
2023-05-02T08:49:15.627Z,25.57
2023-05-02T08:50:15.668Z,25.61
2023-05-02T08:51:15.633Z,25.65
2023-05-02T08:52:15.600Z,25.67
2023-05-02T08:53:15.646Z,25.70
2023-05-02T08:54:15.671Z,25.74
2023-05-02T08:55:15.608Z,25.77
2023-05-02T08:56:15.607Z,25.81
2023-05-02T08:57:15.623Z,25.85
2023-05-02T08:58:17.595Z,25.88
2023-05-02T08:59:15.602Z,25.93
2023-05-02T09:00:15.558Z,25.95
2023-05-02T09:01:15.863Z,25.98
2023-05-02T09:02:15.599Z,26.00
2023-05-02T09:03:15.603Z,26.02
2023-05-02T09:04:15.983Z,26.04
2023-05-02T09:05:15.738Z,26.07
2023-05-02T09:06:15.762Z,26.08
2023-05-02T09:07:15.782Z,26.08
2023-05-02T09:08:15.806Z,26.10
2023-05-02T09:09:18.457Z,26.11
2023-05-02T09:10:15.878Z,26.13
2023-05-02T09:11:15.822Z,26.14
2023-05-02T09:12:15.879Z,26.16
2023-05-02T09:13:15.933Z,26.17
2023-05-02T09:14:15.835Z,26.18
2023-05-02T09:15:17.690Z,26.20
2023-05-02T09:16:15.857Z,26.21
2023-05-02T09:17:15.964Z,26.20
2023-05-02T09:18:15.790Z,26.21
2023-05-02T09:19:15.846Z,26.24
2023-05-02T09:20:16.074Z,26.26
2023-05-02T09:21:18.070Z,26.27
2023-05-02T09:22:15.785Z,26.28
2023-05-02T09:23:15.758Z,26.29
2023-05-02T09:24:15.764Z,26.31
2023-05-02T09:25:15.761Z,26.32
2023-05-02T09:26:15.742Z,26.33
2023-05-02T09:27:15.790Z,26.36
2023-05-02T09:28:15.955Z,26.37
2023-05-02T09:29:15.725Z,26.38
2023-05-02T09:30:15.945Z,26.38
2023-05-02T09:31:22.951Z,26.39
2023-05-02T09:32:17.048Z,26.39
2023-05-02T09:33:17.510Z,26.26
2023-05-02T09:34:15.943Z,26.10
2023-05-02T09:35:15.781Z,25.94
2023-05-02T09:36:15.853Z,25.80
2023-05-02T09:37:15.884Z,25.73
2023-05-02T09:38:15.963Z,25.72
2023-05-02T09:39:16.042Z,25.73
2023-05-02T09:40:16.443Z,25.78
2023-05-02T09:41:16.126Z,25.81
2023-05-02T09:42:16.191Z,25.84
2023-05-02T09:43:16.217Z,25.89
2023-05-02T09:44:16.298Z,25.93
2023-05-02T09:45:16.309Z,25.96
2023-05-02T09:46:16.435Z,26.01
2023-05-02T09:47:16.430Z,26.05
2023-05-02T09:48:16.945Z,26.08
2023-05-02T09:49:16.814Z,26.11
2023-05-02T09:50:16.563Z,26.13
2023-05-02T09:51:16.561Z,26.17
2023-05-02T09:52:16.583Z,26.20
2023-05-02T09:53:16.600Z,26.25
2023-05-02T09:54:16.880Z,26.28
2023-05-02T09:55:16.647Z,26.32
2023-05-02T09:56:16.636Z,26.34
2023-05-02T09:57:16.661Z,26.37
2023-05-02T09:58:16.671Z,26.40
2023-05-02T09:59:16.652Z,26.44
2023-05-02T10:00:16.694Z,26.48
2023-05-02T10:01:16.769Z,26.51
2023-05-02T10:02:16.676Z,26.57
2023-05-02T10:03:16.738Z,26.58
2023-05-02T10:04:16.770Z,26.58
2023-05-02T10:05:16.714Z,26.57
2023-05-02T10:06:16.726Z,26.57
2023-05-02T10:07:16.718Z,26.56
2023-05-02T10:08:16.932Z,26.58
2023-05-02T10:09:20.492Z,26.60
2023-05-02T10:10:16.696Z,26.60
2023-05-02T10:11:16.681Z,26.64
2023-05-02T10:12:16.903Z,26.63
2023-05-02T10:13:16.700Z,26.65
2023-05-02T10:14:16.692Z,26.67
2023-05-02T10:15:16.670Z,26.70
2023-05-02T10:16:16.718Z,26.72
2023-05-02T10:17:16.664Z,26.73
2023-05-02T10:18:16.701Z,26.72
2023-05-02T10:19:16.656Z,26.73
2023-05-02T10:20:16.744Z,26.74
2023-05-02T10:21:16.653Z,26.76
2023-05-02T10:22:16.685Z,26.75
2023-05-02T10:23:16.694Z,26.74
2023-05-02T10:24:16.730Z,26.74
2023-05-02T10:25:16.760Z,26.75
2023-05-02T10:26:16.857Z,26.76
2023-05-02T10:27:16.977Z,26.75
2023-05-02T10:28:16.935Z,26.79
2023-05-02T10:29:16.985Z,26.83
2023-05-02T10:30:17.062Z,26.83
2023-05-02T10:31:17.134Z,26.83
2023-05-02T10:32:17.157Z,26.79
2023-05-02T10:33:17.171Z,26.77
2023-05-02T10:34:17.158Z,26.78
2023-05-02T10:35:17.215Z,26.79
2023-05-02T10:36:17.239Z,26.79
2023-05-02T10:37:17.226Z,26.79
2023-05-02T10:38:17.257Z,26.84
2023-05-02T10:39:17.317Z,26.85
2023-05-02T10:40:17.371Z,26.88
2023-05-02T10:41:17.458Z,26.91
2023-05-02T10:42:17.525Z,26.93
2023-05-02T10:43:17.584Z,26.95
2023-05-02T10:44:17.638Z,26.96
2023-05-02T10:45:17.687Z,26.95
2023-05-02T10:46:17.759Z,26.95
2023-05-02T10:47:17.805Z,26.93
2023-05-02T10:48:17.808Z,26.94
2023-05-02T10:49:17.909Z,26.92
2023-05-02T10:50:17.989Z,26.89
2023-05-02T10:51:17.993Z,26.90
2023-05-02T10:52:18.073Z,26.89
2023-05-02T10:53:18.130Z,26.91
2023-05-02T10:54:18.199Z,26.92
2023-05-02T10:55:18.226Z,26.93
2023-05-02T10:56:18.284Z,26.93
2023-05-02T10:57:18.332Z,26.93
2023-05-02T10:58:18.447Z,26.96
2023-05-02T10:59:18.443Z,26.95
2023-05-02T11:00:18.513Z,26.94
2023-05-02T11:01:18.619Z,26.97
2023-05-02T11:02:18.656Z,26.98
2023-05-02T11:03:18.676Z,27.00
2023-05-02T11:04:18.696Z,27.01
2023-05-02T11:05:18.771Z,27.01
2023-05-02T11:06:18.847Z,27.00
2023-05-02T11:07:18.882Z,26.98
2023-05-02T11:08:21.220Z,26.96
2023-05-02T11:09:18.935Z,26.96
2023-05-02T11:10:18.905Z,26.98
2023-05-02T11:11:18.895Z,26.98
2023-05-02T11:12:19.082Z,26.99
2023-05-02T11:13:18.984Z,27.00
2023-05-02T11:14:19.828Z,27.01
2023-05-02T11:15:18.880Z,27.01
2023-05-02T11:16:18.906Z,26.98
2023-05-02T11:17:18.833Z,26.99
2023-05-02T11:18:18.850Z,26.96
2023-05-02T11:19:18.817Z,26.97
2023-05-02T11:20:18.842Z,26.96
2023-05-02T11:21:19.026Z,26.96
2023-05-02T11:22:18.826Z,26.97
2023-05-02T11:23:18.981Z,26.99
2023-05-02T11:24:18.839Z,27.00
2023-05-02T11:25:18.956Z,26.99
2023-05-02T11:26:18.838Z,26.98
2023-05-02T11:27:18.773Z,26.96
2023-05-02T11:28:18.797Z,26.95
2023-05-02T11:29:18.765Z,26.94
2023-05-02T11:30:18.773Z,26.92
2023-05-02T11:31:18.798Z,26.91
2023-05-02T11:32:18.938Z,26.90
2023-05-02T11:33:18.974Z,26.90
2023-05-02T11:34:18.962Z,26.89
2023-05-02T11:35:19.031Z,26.86
2023-05-02T11:36:19.009Z,26.82
2023-05-02T11:37:19.019Z,26.82
2023-05-02T11:38:19.019Z,26.80
2023-05-02T11:39:19.039Z,26.79
2023-05-02T11:40:19.097Z,26.78
2023-05-02T11:41:19.035Z,26.78
2023-05-02T11:42:19.155Z,26.77
2023-05-02T11:43:19.084Z,26.75
2023-05-02T11:44:19.072Z,26.74
2023-05-02T11:45:19.140Z,26.73
2023-05-02T11:46:19.147Z,26.74
2023-05-02T11:47:19.156Z,26.74
2023-05-02T11:48:19.117Z,26.73
2023-05-02T11:49:19.157Z,26.74
2023-05-02T11:50:19.188Z,26.72
2023-05-02T11:51:19.237Z,26.71
2023-05-02T11:52:19.173Z,26.70
2023-05-02T11:53:19.211Z,26.69
2023-05-02T11:54:19.203Z,26.70
2023-05-02T11:55:19.204Z,26.69
2023-05-02T11:56:19.205Z,26.67
2023-05-02T11:57:19.225Z,26.64
2023-05-02T11:58:19.234Z,26.64
2023-05-02T11:59:19.286Z,26.65
2023-05-02T12:00:19.267Z,26.64
2023-05-02T12:01:19.251Z,26.64
2023-05-02T12:02:19.332Z,26.64
2023-05-02T12:03:19.361Z,26.64
2023-05-02T12:04:19.289Z,26.65
2023-05-02T12:05:19.309Z,26.66
2023-05-02T12:06:20.052Z,26.67
2023-05-02T12:07:19.288Z,26.68
2023-05-02T12:08:19.304Z,26.68
2023-05-02T12:09:19.347Z,26.68
2023-05-02T12:10:19.304Z,26.69
2023-05-02T12:11:19.291Z,26.70
2023-05-02T12:12:19.262Z,26.70
2023-05-02T12:13:19.258Z,26.71
2023-05-02T12:14:19.270Z,26.71
2023-05-02T12:15:19.283Z,26.71
2023-05-02T12:16:19.506Z,26.71
2023-05-02T12:17:19.256Z,26.70
2023-05-02T12:18:21.961Z,26.70
2023-05-02T12:19:19.280Z,26.71
2023-05-02T12:20:19.257Z,26.70
2023-05-02T12:21:19.223Z,26.71
2023-05-02T12:22:19.230Z,26.70
2023-05-02T12:23:19.266Z,26.70
2023-05-02T12:24:19.240Z,26.70
2023-05-02T12:25:19.241Z,26.70
2023-05-02T12:26:19.297Z,26.70
2023-05-02T12:27:19.274Z,26.69
2023-05-02T12:28:19.213Z,26.69
2023-05-02T12:29:19.153Z,26.68
2023-05-02T12:30:19.227Z,26.69
2023-05-02T12:31:19.256Z,26.69
2023-05-02T12:32:19.178Z,26.69
2023-05-02T12:33:19.210Z,26.69
2023-05-02T12:34:19.228Z,26.68
2023-05-02T12:35:19.170Z,26.69
2023-05-02T12:36:19.306Z,26.69
2023-05-02T12:37:19.122Z,26.69
2023-05-02T12:38:19.117Z,26.68
2023-05-02T12:39:19.133Z,26.68
2023-05-02T12:40:19.099Z,26.68
2023-05-02T12:41:19.136Z,26.68
2023-05-02T12:42:19.130Z,26.68
2023-05-02T12:43:19.104Z,26.67
2023-05-02T12:44:19.156Z,26.66
2023-05-02T12:45:19.154Z,26.65
2023-05-02T12:46:19.098Z,26.66
2023-05-02T12:47:19.214Z,26.66
2023-05-02T12:48:19.038Z,26.65
2023-05-02T12:49:19.077Z,26.65
2023-05-02T12:50:19.160Z,26.65
2023-05-02T12:51:19.067Z,26.65
2023-05-02T12:52:19.010Z,26.64